Time;durP1;ratioP1;P1;durP2;ratioP2;P2;SDS_P1;SDS_P2;PMS_P1;PMS_P2;Temp;Humidity;BMP_temperature;BMP_pressure;BME280_temperature;BME280_humidity;BME280_pressure;Samples;Min_cycle;Max_cycle;Signal;HPM_P1;HPM_P2
2023/04/27 00:02:05;;;;;;;;;;;;;;;9.09;56.43;94920.47;5053288;28;996;-52
2023/04/27 00:04:31;;;;;;;;;;;;;;;9.02;54.89;94922.09;5053021;28;1882;-52
2023/04/27 00:06:57;;;;;;;;;;;;;;;8.98;54.74;94915.41;5053176;28;1230;-52
2023/04/27 00:09:23;;;;;;;;;;;;;;;8.96;54.90;94920.06;5052950;28;985;-52
2023/04/27 00:11:49;;;;;;;;;;;;;;;8.88;54.99;94917.31;5053280;28;984;-52
2023/04/27 00:14:15;;;;;;;;;;;;;;;8.81;54.93;94917.13;5053177;28;1057;-52
2023/04/27 00:16:41;;;;;;;;;;;;;;;8.76;55.63;94922.06;5053298;28;1910;-52
2023/04/27 00:19:07;;;;;;;;;;;;;;;8.76;56.91;94916.75;5053034;28;950;-52
2023/04/27 00:21:33;;;;;;;;;;;;;;;8.69;55.48;94923.69;5052880;28;1996;-52
2023/04/27 00:24:00;;;;;;;;;;;;;;;8.68;55.31;94919.34;5052966;28;1292;-51
2023/04/27 00:26:26;;;;;;;;;;;;;;;8.66;55.12;94922.16;5053131;28;1051;-52
2023/04/27 00:28:52;;;;;;;;;;;;;;;8.55;54.87;94925.06;5053207;28;1212;-52
2023/04/27 00:31:18;;;;;;;;;;;;;;;8.59;56.20;94921.09;5052828;28;1225;-52
2023/04/27 00:33:44;;;;;;;;;;;;;;;8.62;56.35;94925.31;5053205;28;969;-52
2023/04/27 00:36:10;;;;;;;;;;;;;;;8.58;56.41;94916.78;5052638;28;1891;-52
2023/04/27 00:38:36;;;;;;;;;;;;;;;8.56;55.88;94916.09;5052820;28;1061;-52
2023/04/27 00:41:02;;;;;;;;;;;;;;;8.44;56.02;94926.16;5052948;28;1550;-52
2023/04/27 00:43:28;;;;;;;;;;;;;;;8.33;55.60;94927.19;5052544;28;1112;-52
2023/04/27 00:45:55;;;;;;;;;;;;;;;8.24;57.14;94925.44;5056295;28;1017;-52
2023/04/27 00:48:21;;;;;;;;;;;;;;;8.21;56.85;94931.06;5056855;28;1044;-52
2023/04/27 00:50:47;;;;;;;;;;;;;;;8.21;57.08;94931.06;5056586;28;1071;-52
2023/04/27 00:53:14;;;;;;;;;;;;;;;8.27;58.00;94937.63;5056310;28;1124;-52
2023/04/27 00:55:40;;;;;;;;;;;;;;;8.22;57.71;94938.09;5056492;28;2001;-52
2023/04/27 00:58:07;;;;;;;;;;;;;;;8.16;58.44;94930.72;5056385;28;1293;-51
2023/04/27 01:00:34;;;;;;;;;;;;;;;8.01;59.23;94939.22;5056413;28;1013;-52
2023/04/27 01:03:01;;;;;;;;;;;;;;;7.95;59.43;94945.13;5056637;28;1021;-52
2023/04/27 01:05:27;;;;;;;;;;;;;;;7.83;60.97;94943.66;5056186;28;1104;-52
2023/04/27 01:07:54;;;;;;;;;;;;;;;7.82;59.58;94948.16;5056508;28;988;-52
2023/04/27 01:10:20;;;;;;;;;;;;;;;7.84;57.93;94948.00;5056177;28;1060;-52
2023/04/27 01:12:46;;;;;;;;;;;;;;;7.87;59.18;94950.34;5056143;28;1128;-52
2023/04/27 01:15:12;;;;;;;;;;;;;;;7.68;59.83;94951.31;5056083;28;1914;-52
2023/04/27 01:17:38;;;;;;;;;;;;;;;7.71;58.42;94947.53;5056335;28;965;-52
2023/04/27 01:20:08;;;;;;;;;;;;;;;7.80;57.72;94949.31;5056051;28;954;-52
2023/04/27 01:22:34;;;;;;;;;;;;;;;7.82;56.79;94948.16;5056148;28;1279;-52
2023/04/27 01:25:00;;;;;;;;;;;;;;;7.81;57.99;94957.09;5056147;28;985;-52
2023/04/27 01:27:26;;;;;;;;;;;;;;;7.81;56.43;94956.28;5056079;28;1046;-52
2023/04/27 01:29:52;;;;;;;;;;;;;;;7.88;55.57;94961.88;5056142;28;966;-52
2023/04/27 01:32:18;;;;;;;;;;;;;;;7.92;56.48;94963.22;5056036;28;1020;-51
2023/04/27 01:34:44;;;;;;;;;;;;;;;7.92;54.04;94964.06;5055583;28;2003;-52
2023/04/27 01:37:10;;;;;;;;;;;;;;;7.94;55.31;94963.91;5055611;28;1033;-51
2023/04/27 01:39:36;;;;;;;;;;;;;;;7.89;57.23;94958.19;5055791;28;1187;-52
2023/04/27 01:42:02;;;;;;;;;;;;;;;7.74;57.01;94965.84;5055848;28;1539;-52
2023/04/27 01:44:29;;;;;;;;;;;;;;;7.68;56.38;94959.28;5055449;28;1123;-52
2023/04/27 01:46:55;;;;;;;;;;;;;;;7.70;55.49;94964.47;5055437;28;1033;-52
2023/04/27 01:49:21;;;;;;;;;;;;;;;7.55;55.65;94972.94;5055640;28;966;-52
2023/04/27 01:51:47;;;;;;;;;;;;;;;7.67;54.91;94972.75;5055687;28;1052;-52
2023/04/27 01:54:13;;;;;;;;;;;;;;;7.69;55.56;94968.13;5055409;28;1021;-52
2023/04/27 01:56:39;;;;;;;;;;;;;;;7.73;55.14;94970.34;5054739;28;1910;-52
2023/04/27 01:59:05;;;;;;;;;;;;;;;7.72;55.00;94965.16;5055252;28;1027;-52
2023/04/27 02:01:31;;;;;;;;;;;;;;;7.72;54.68;94968.69;5055142;28;1207;-52
2023/04/27 02:03:57;;;;;;;;;;;;;;;7.71;54.87;94968.81;5055234;28;1117;-51
2023/04/27 02:06:23;;;;;;;;;;;;;;;7.75;54.29;94967.53;5054884;28;1882;-52
2023/04/27 02:08:49;;;;;;;;;;;;;;;7.81;54.47;94972.25;5055404;28;1040;-51
2023/04/27 02:11:15;;;;;;;;;;;;;;;7.71;53.79;94984.78;5055050;28;1052;-52
2023/04/27 02:13:41;;;;;;;;;;;;;;;7.60;54.22;94973.31;5055028;28;1113;-52
2023/04/27 02:16:07;;;;;;;;;;;;;;;7.63;54.16;94969.56;5055055;28;1099;-52
2023/04/27 02:18:33;;;;;;;;;;;;;;;7.56;53.86;94971.94;5054929;28;1044;-52
2023/04/27 02:21:00;;;;;;;;;;;;;;;7.57;53.70;94975.44;5054836;28;1038;-52
2023/04/27 02:23:26;;;;;;;;;;;;;;;7.46;53.99;94976.50;5055100;28;966;-52
2023/04/27 02:25:52;;;;;;;;;;;;;;;7.32;54.48;94980.47;5054873;28;1910;-52
2023/04/27 02:28:18;;;;;;;;;;;;;;;7.37;54.81;94974.69;5054748;28;1060;-52
2023/04/27 02:30:44;;;;;;;;;;;;;;;7.49;54.95;94973.53;5054692;28;1096;-52
2023/04/27 02:33:10;;;;;;;;;;;;;;;7.45;54.26;94974.81;5054713;28;1043;-52
2023/04/27 02:35:36;;;;;;;;;;;;;;;7.46;53.96;94980.97;5054505;28;1023;-52
2023/04/27 02:38:02;;;;;;;;;;;;;;;7.46;54.54;94981.81;5054862;28;1029;-50
2023/04/27 02:40:28;;;;;;;;;;;;;;;7.38;54.50;94990.53;5054349;28;1283;-52
2023/04/27 02:42:54;;;;;;;;;;;;;;;7.38;54.26;94976.34;5054479;28;1779;-52
2023/04/27 02:45:20;;;;;;;;;;;;;;;7.42;54.63;94981.25;5054659;28;1909;-52
2023/04/27 02:47:46;;;;;;;;;;;;;;;7.38;54.10;94982.53;5054316;28;1877;-52
2023/04/27 02:50:12;;;;;;;;;;;;;;;7.26;55.12;94988.19;5054497;28;1040;-52
2023/04/27 02:52:38;;;;;;;;;;;;;;;7.14;55.49;94984.84;5054521;28;1112;-52
2023/04/27 02:55:05;;;;;;;;;;;;;;;7.20;54.98;94987.75;5054297;28;1020;-52
2023/04/27 02:57:31;;;;;;;;;;;;;;;7.18;55.81;94989.72;5054230;28;992;-52
2023/04/27 02:59:57;;;;;;;;;;;;;;;7.08;57.36;94988.09;5054292;28;993;-52
2023/04/27 03:02:23;;;;;;;;;;;;;;;7.05;58.25;94991.88;5054050;28;1020;-52
2023/04/27 03:04:53;;;;;;;;;;;;;;;6.98;59.06;95002.25;5053964;28;1910;-52
2023/04/27 03:07:20;;;;;;;;;;;;;;;6.71;60.23;94997.66;5053833;28;1073;-52
2023/04/27 03:09:46;;;;;;;;;;;;;;;6.65;59.79;95001.69;5054016;28;1043;-52
2023/04/27 03:12:12;;;;;;;;;;;;;;;6.53;59.39;95009.97;5053968;28;1036;-53
2023/04/27 03:14:38;;;;;;;;;;;;;;;6.48;61.42;95005.06;5054123;28;982;-53
2023/04/27 03:17:04;;;;;;;;;;;;;;;6.17;64.32;95015.81;5054121;28;940;-52
2023/04/27 03:19:30;;;;;;;;;;;;;;;5.94;64.76;95004.56;5053681;28;1097;-53
2023/04/27 03:21:56;;;;;;;;;;;;;;;6.01;64.62;95004.88;5053974;28;1048;-52
2023/04/27 03:24:24;;;;;;;;;;;;;;;5.79;66.07;95013.88;5053664;28;1056;-53
2023/04/27 03:26:51;;;;;;;;;;;;;;;5.66;67.05;95012.28;5053886;28;1906;-53
2023/04/27 03:29:17;;;;;;;;;;;;;;;5.56;66.69;95010.56;5053564;28;1034;-52
2023/04/27 03:31:43;;;;;;;;;;;;;;;5.28;68.82;95021.78;5053629;28;1037;-53
2023/04/27 03:34:10;;;;;;;;;;;;;;;5.18;69.80;95020.88;5053374;28;1550;-52
2023/04/27 03:36:36;;;;;;;;;;;;;;;5.36;68.42;95030.88;5053801;28;976;-52
2023/04/27 03:39:02;;;;;;;;;;;;;;;5.23;69.25;95018.66;5053541;28;1036;-54
2023/04/27 03:41:28;;;;;;;;;;;;;;;5.05;70.27;95022.91;5053312;28;1364;-54
2023/04/27 03:47:25;;;;;;;;;;;;;;;4.75;70.35;95034.28;5053367;28;1088;-55
2023/04/27 03:49:52;;;;;;;;;;;;;;;4.93;70.22;95031.88;5053278;28;1172;-54
2023/04/27 03:52:18;;;;;;;;;;;;;;;5.16;69.63;95036.09;5053134;28;1085;-55
2023/04/27 03:54:44;;;;;;;;;;;;;;;5.17;67.46;95036.91;5053155;28;1040;-55
2023/04/27 03:57:13;;;;;;;;;;;;;;;5.28;67.44;95040.31;5053179;28;1050;-54
2023/04/27 03:59:39;;;;;;;;;;;;;;;5.48;65.99;95038.63;5053451;28;1009;-55
2023/04/27 04:02:05;;;;;;;;;;;;;;;5.82;64.40;95048.94;5053455;28;1041;-55
2023/04/27 04:04:31;;;;;;;;;;;;;;;5.86;65.62;95049.50;5053062;28;1105;-55
2023/04/27 04:06:57;;;;;;;;;;;;;;;5.83;66.20;95052.44;5053157;28;1977;-55
2023/04/27 04:09:23;;;;;;;;;;;;;;;5.87;66.03;95054.66;5053051;28;1039;-55
2023/04/27 04:11:50;;;;;;;;;;;;;;;5.68;66.79;95055.44;5053290;28;1028;-55
2023/04/27 04:14:16;;;;;;;;;;;;;;;5.48;68.75;95067.78;5053270;28;993;-55
2023/04/27 04:16:42;;;;;;;;;;;;;;;5.34;68.60;95068.13;5053290;28;1143;-55
2023/04/27 04:19:08;;;;;;;;;;;;;;;5.19;70.30;95072.09;5053664;28;1096;-55
2023/04/27 04:21:35;;;;;;;;;;;;;;;5.06;71.26;95074.91;5057069;28;1088;-54
2023/04/27 04:24:01;;;;;;;;;;;;;;;5.07;72.65;95073.97;5057108;28;1044;-55
2023/04/27 04:26:27;;;;;;;;;;;;;;;5.18;71.99;95076.56;5056896;28;1906;-54
2023/04/27 04:28:53;;;;;;;;;;;;;;;4.95;71.40;95081.16;5057296;28;969;-54
2023/04/27 04:31:20;;;;;;;;;;;;;;;4.96;71.01;95082.81;5057069;28;1040;-54
2023/04/27 04:33:46;;;;;;;;;;;;;;;5.06;70.12;95082.88;5057125;28;1055;-54
2023/04/27 04:36:12;;;;;;;;;;;;;;;5.21;70.88;95080.75;5056721;28;1022;-55
2023/04/27 04:38:38;;;;;;;;;;;;;;;5.27;70.39;95083.72;5056794;28;1016;-54
2023/04/27 04:41:04;;;;;;;;;;;;;;;5.40;71.54;95083.50;5056724;28;973;-55
2023/04/27 04:43:30;;;;;;;;;;;;;;;5.50;71.26;95088.03;5056895;28;1040;-53
2023/04/27 04:45:56;;;;;;;;;;;;;;;6.02;70.04;95083.53;5056623;28;1985;-53
2023/04/27 04:48:22;;;;;;;;;;;;;;;6.59;68.50;95086.44;5056552;28;1021;-53
2023/04/27 04:50:49;;;;;;;;;;;;;;;6.99;66.75;95099.59;5056499;28;1080;-54
2023/04/27 04:53:15;;;;;;;;;;;;;;;7.38;65.49;95099.56;5056467;28;977;-55
2023/04/27 04:55:41;;;;;;;;;;;;;;;7.82;60.44;95097.22;5056430;28;1061;-56
2023/04/27 04:58:07;;;;;;;;;;;;;;;8.18;59.72;95101.84;5056711;28;1012;-55
2023/04/27 05:00:33;;;;;;;;;;;;;;;8.53;56.34;95111.75;5056450;28;1032;-55
2023/04/27 05:03:00;;;;;;;;;;;;;;;8.95;54.66;95111.22;5056522;28;1016;-54
2023/04/27 05:05:26;;;;;;;;;;;;;;;9.25;55.05;95105.63;5056304;28;1996;-55
2023/04/27 05:07:52;;;;;;;;;;;;;;;9.37;53.31;95110.56;5056499;28;1228;-55
2023/04/27 05:10:18;;;;;;;;;;;;;;;9.47;52.96;95115.00;5056480;28;974;-55
2023/04/27 05:12:44;;;;;;;;;;;;;;;9.51;52.82;95117.19;5055065;28;1225;-55
2023/04/27 05:15:10;;;;;;;;;;;;;;;9.75;51.85;95121.00;5056314;28;1035;-55
2023/04/27 05:17:36;;;;;;;;;;;;;;;10.02;51.44;95114.69;5056286;28;1001;-52
2023/04/27 05:20:03;;;;;;;;;;;;;;;10.26;52.16;95115.78;5056104;28;966;-52
2023/04/27 05:22:29;;;;;;;;;;;;;;;10.59;50.26;95116.81;5055725;28;1187;-52
2023/04/27 05:24:57;;;;;;;;;;;;;;;10.77;48.76;95116.69;5055705;28;1914;-51
2023/04/27 05:27:23;;;;;;;;;;;;;;;10.99;48.78;95117.91;5056127;28;973;-51
2023/04/27 05:29:50;;;;;;;;;;;;;;;11.24;48.36;95124.13;5055736;28;1104;-51
2023/04/27 05:32:16;;;;;;;;;;;;;;;11.52;46.52;95132.66;5054445;28;1026;-51
2023/04/27 05:34:43;;;;;;;;;;;;;;;11.64;47.56;95127.81;5055813;28;1025;-51
2023/04/27 05:37:10;;;;;;;;;;;;;;;11.68;46.39;95128.31;5055572;28;1058;-51
2023/04/27 05:39:36;;;;;;;;;;;;;;;11.97;46.29;95126.97;5055572;28;1091;-52
2023/04/27 05:42:02;;;;;;;;;;;;;;;11.91;45.69;95129.34;5055819;28;1347;-51
2023/04/27 05:44:28;;;;;;;;;;;;;;;12.08;45.91;95124.78;5055441;28;1120;-52
2023/04/27 05:46:55;;;;;;;;;;;;;;;12.43;44.15;95130.72;5055296;28;1914;-51
2023/04/27 05:49:21;;;;;;;;;;;;;;;12.47;43.44;95139.25;5055690;28;997;-52
2023/04/27 05:51:47;;;;;;;;;;;;;;;12.45;46.15;95130.53;5055638;28;1053;-52
2023/04/27 05:54:13;;;;;;;;;;;;;;;12.70;45.24;95134.78;5055252;28;1113;-51
2023/04/27 05:56:40;;;;;;;;;;;;;;;13.00;42.37;95136.84;5055608;28;1033;-52
2023/04/27 05:59:06;;;;;;;;;;;;;;;12.89;42.61;95132.69;5055482;28;960;-52
2023/04/27 06:01:32;;;;;;;;;;;;;;;12.93;42.70;95138.53;5055481;28;1006;-52
2023/04/27 06:04:00;;;;;;;;;;;;;;;13.07;41.08;95138.63;5055176;28;1041;-52
2023/04/27 06:06:27;;;;;;;;;;;;;;;13.20;42.24;95142.56;5055216;28;1994;-52
2023/04/27 06:08:53;;;;;;;;;;;;;;;13.40;40.75;95143.81;5055132;28;1030;-52
2023/04/27 06:11:19;;;;;;;;;;;;;;;13.84;40.25;95153.88;5055322;28;965;-52
2023/04/27 06:13:45;;;;;;;;;;;;;;;14.12;39.66;95150.59;5054991;28;1154;-52
2023/04/27 06:16:12;;;;;;;;;;;;;;;14.16;38.97;95151.91;5055164;28;1028;-53
2023/04/27 06:18:38;;;;;;;;;;;;;;;14.01;40.55;95148.38;5054904;28;1088;-54
2023/04/27 06:21:05;;;;;;;;;;;;;;;13.93;39.01;95141.22;5055047;28;1044;-53
2023/04/27 06:23:31;;;;;;;;;;;;;;;13.84;39.89;95145.81;5054616;28;1033;-52
2023/04/27 06:25:58;;;;;;;;;;;;;;;14.19;38.49;95140.78;5055080;28;1987;-53
2023/04/27 06:28:24;;;;;;;;;;;;;;;14.63;39.68;95137.31;5054663;28;1116;-53
2023/04/27 06:30:50;;;;;;;;;;;;;;;14.65;39.06;95142.50;5054884;28;1017;-53
2023/04/27 06:33:16;;;;;;;;;;;;;;;14.67;40.27;95142.34;5054693;28;1010;-53
2023/04/27 06:35:42;;;;;;;;;;;;;;;14.82;39.29;95132.38;5054645;28;1100;-53
2023/04/27 06:38:08;;;;;;;;;;;;;;;14.99;38.76;95133.84;5054698;28;1020;-53
2023/04/27 06:40:35;;;;;;;;;;;;;;;15.29;38.54;95135.59;5053498;28;1335;-53
2023/04/27 06:43:02;;;;;;;;;;;;;;;14.78;37.44;95136.47;5054119;28;1101;-53
2023/04/27 06:45:28;;;;;;;;;;;;;;;15.10;37.03;95132.53;5054328;28;1909;-53
2023/04/27 06:47:54;;;;;;;;;;;;;;;14.65;37.47;95137.13;5053145;28;1281;-53
2023/04/27 06:50:20;;;;;;;;;;;;;;;14.52;38.09;95129.66;5054293;28;1046;-53
2023/04/27 06:52:46;;;;;;;;;;;;;;;14.15;38.85;95128.75;5054182;28;1061;-53
2023/04/27 06:55:12;;;;;;;;;;;;;;;14.34;38.99;95127.38;5054126;28;1042;-53
2023/04/27 06:57:38;;;;;;;;;;;;;;;14.10;41.98;95114.19;5054159;28;1125;-52
2023/04/27 07:00:05;;;;;;;;;;;;;;;13.84;39.82;95124.31;5054494;28;1276;-53
2023/04/27 07:02:31;;;;;;;;;;;;;;;13.59;39.84;95126.38;5054144;28;1011;-53
2023/04/27 07:04:57;;;;;;;;;;;;;;;13.52;40.66;95127.28;5054042;28;1910;-53
2023/04/27 07:07:23;;;;;;;;;;;;;;;13.36;38.87;95120.19;5053742;28;1059;-53
2023/04/27 07:09:49;;;;;;;;;;;;;;;13.12;39.64;95118.47;5053960;28;1041;-52
2023/04/27 07:12:15;;;;;;;;;;;;;;;13.02;39.58;95121.38;5053900;28;1077;-51
2023/04/27 07:14:42;;;;;;;;;;;;;;;13.07;40.17;95121.66;5054152;28;969;-53
2023/04/27 07:17:07;;;;;;;;;;;;;;;12.95;40.51;95129.28;5053921;28;1041;-53
2023/04/27 07:19:35;;;;;;;;;;;;;;;13.27;40.81;95117.50;5053766;28;1108;-53
2023/04/27 07:22:01;;;;;;;;;;;;;;;13.17;41.17;95124.97;5053936;28;1012;-53
2023/04/27 07:24:27;;;;;;;;;;;;;;;13.27;40.79;95124.75;5053899;28;1005;-53
2023/04/27 07:26:55;;;;;;;;;;;;;;;13.28;41.43;95113.84;5052422;28;1906;-52
2023/04/27 07:29:22;;;;;;;;;;;;;;;13.27;41.16;95117.50;5053541;28;1121;-53
2023/04/27 07:31:48;;;;;;;;;;;;;;;13.18;41.83;95115.91;5053505;28;1104;-53
2023/04/27 07:34:14;;;;;;;;;;;;;;;12.87;40.74;95123.97;5053594;28;1048;-53
2023/04/27 07:36:40;;;;;;;;;;;;;;;12.96;41.04;95114.88;5053588;28;1044;-54
2023/04/27 07:39:07;;;;;;;;;;;;;;;12.78;40.28;95120.50;5053655;28;1017;-54
2023/04/27 07:41:34;;;;;;;;;;;;;;;12.63;41.26;95117.72;5053477;28;1591;-54
2023/04/27 07:44:00;;;;;;;;;;;;;;;12.83;40.66;95117.31;5053544;28;977;-54
2023/04/27 07:46:26;;;;;;;;;;;;;;;13.21;40.29;95125.47;5053129;28;1900;-54
2023/04/27 07:48:54;;;;;;;;;;;;;;;13.51;41.48;95120.22;5053577;28;1035;-54
2023/04/27 08:17:06;;;;;;;;;;;;;;;14.69;40.07;95129.53;5090829;27;2082;-62
2023/04/27 08:19:33;;;;;;;;;;;;;;;14.39;39.16;95140.25;5090872;28;1036;-61
2023/04/27 08:21:59;;;;;;;;;;;;;;;14.25;39.50;95140.06;5090449;28;1562;-62
2023/04/27 08:24:25;;;;;;;;;;;;;;;14.41;40.05;95132.81;5090569;28;1913;-62
2023/04/27 08:26:51;;;;;;;;;;;;;;;14.26;40.04;95132.81;5090753;28;1027;-62
2023/04/27 08:29:17;;;;;;;;;;;;;;;14.28;40.04;95129.94;5089361;28;1068;-62
2023/04/27 08:31:44;;;;;;;;;;;;;;;14.16;38.57;95138.47;5090600;28;1048;-58
2023/04/27 08:34:10;;;;;;;;;;;;;;;13.85;39.60;95141.28;5089222;28;1040;-60
2023/04/27 08:36:36;;;;;;;;;;;;;;;14.33;39.45;95135.63;5090393;28;1044;-56
2023/04/27 08:39:06;;;;;;;;;;;;;;;15.37;38.53;95143.59;5090618;28;1308;-60
2023/04/27 08:41:32;;;;;;;;;;;;;;;16.07;38.06;95138.44;5090187;28;1123;-60
2023/04/27 08:43:58;;;;;;;;;;;;;;;16.03;37.58;95154.19;5090613;28;949;-59
2023/04/27 08:46:27;;;;;;;;;;;;;;;15.88;37.16;95150.72;5090290;28;1997;-59
2023/04/27 08:48:53;;;;;;;;;;;;;;;15.54;36.70;95152.25;5090271;28;1027;-59
2023/04/27 08:51:20;;;;;;;;;;;;;;;14.62;36.64;95146.38;5090033;28;1036;-59
2023/04/27 08:53:48;;;;;;;;;;;;;;;14.18;37.66;95141.81;5090341;28;1043;-60
2023/04/27 08:56:14;;;;;;;;;;;;;;;14.20;38.38;95138.94;5090267;28;1016;-60
2023/04/27 08:58:40;;;;;;;;;;;;;;;14.42;40.26;95129.13;5090091;28;1116;-60
2023/04/27 09:01:06;;;;;;;;;;;;;;;14.51;39.71;95127.16;5089983;28;1068;-60
2023/04/27 09:03:33;;;;;;;;;;;;;;;14.27;38.79;95137.19;5090171;28;1023;-60
2023/04/27 09:05:59;;;;;;;;;;;;;;;13.99;38.35;95132.41;5088592;28;1906;-60
2023/04/27 09:08:26;;;;;;;;;;;;;;;14.10;39.39;95131.13;5090013;28;1020;-60
2023/04/27 09:10:53;;;;;;;;;;;;;;;14.10;38.37;95125.75;5089994;28;1035;-60
2023/04/27 09:13:19;;;;;;;;;;;;;;;13.88;38.60;95134.72;5089857;28;1562;-60
2023/04/27 09:15:55;;;;;;;;;;;;;;;13.96;38.43;95134.63;5098964;28;1223;-59
2023/04/27 09:18:22;;;;;;;;;;;;;;;14.04;38.56;95129.19;5095882;28;949;-60
2023/04/27 09:20:52;;;;;;;;;;;;;;;14.32;38.05;95124.00;5095415;28;1027;-60
2023/04/27 09:23:31;;;;;;;;;;;;;;;14.51;37.58;95117.22;5096111;28;1068;-60
2023/04/27 09:25:58;;;;;;;;;;;;;;;15.02;38.68;95119.16;5096386;28;1909;-60
2023/04/27 09:28:29;;;;;;;;;;;;;;;15.06;36.26;95122.28;5096483;28;941;-60
2023/04/27 09:30:57;;;;;;;;;;;;;;;15.03;38.31;95118.13;5095311;28;1056;-61
2023/04/27 09:33:23;;;;;;;;;;;;;;;15.02;38.67;95121.84;5096273;28;1060;-60
2023/04/27 09:35:50;;;;;;;;;;;;;;;14.81;37.40;95118.06;5096250;28;1020;-59
2023/04/27 09:38:17;;;;;;;;;;;;;;;14.81;39.13;95110.00;5096000;28;1000;-60
2023/04/27 09:40:43;;;;;;;;;;;;;;;14.92;38.46;95115.94;5095959;28;1087;-61
2023/04/27 09:43:10;;;;;;;;;;;;;;;15.29;38.47;95104.13;5096025;28;1039;-60
2023/04/27 09:45:37;;;;;;;;;;;;;;;15.41;38.04;95104.44;5096026;28;1917;-60
2023/04/27 09:48:03;;;;;;;;;;;;;;;15.50;38.14;95105.13;5095809;28;1040;-60
2023/04/27 09:50:30;;;;;;;;;;;;;;;15.70;37.81;95110.72;5095866;28;1015;-60
2023/04/27 09:52:56;;;;;;;;;;;;;;;15.22;34.27;95116.69;5095729;28;1095;-60
2023/04/27 09:55:41;;;;;;;;;;;;;;;15.03;35.98;95116.28;5095657;28;1129;-59
2023/04/27 09:58:10;;;;;;;;;;;;;;;15.38;36.50;95115.59;5095893;28;1052;-60
2023/04/27 10:00:36;;;;;;;;;;;;;;;15.70;36.55;95122.34;5095590;28;1020;-59
2023/04/27 10:03:02;;;;;;;;;;;;;;;15.76;36.67;95116.22;5095903;28;1036;-59
2023/04/27 10:05:47;;;;;;;;;;;;;;;15.58;36.16;95122.03;5095559;28;1918;-59
2023/04/27 10:08:14;;;;;;;;;;;;;;;15.35;37.19;95118.69;5095345;28;1044;-59
2023/04/27 10:10:47;;;;;;;;;;;;;;;15.33;36.29;95113.50;5095356;28;1076;-60
2023/04/27 10:13:23;;;;;;;;;;;;;;;15.32;38.32;95105.59;5095180;28;1362;-59
2023/04/27 10:15:51;;;;;;;;;;;;;;;15.35;37.41;95113.31;5095120;28;1231;-59
2023/04/27 10:18:28;;;;;;;;;;;;;;;15.55;38.64;95108.09;5095165;28;1100;-60
2023/04/27 10:20:54;;;;;;;;;;;;;;;15.71;35.74;95113.22;5094055;28;1057;-60
2023/04/27 10:23:24;;;;;;;;;;;;;;;15.80;37.40;95108.56;5094063;28;985;-60
2023/04/27 10:25:51;;;;;;;;;;;;;;;15.69;36.91;95111.75;5095351;28;2060;-60
2023/04/27 10:28:17;;;;;;;;;;;;;;;15.75;37.74;95117.25;5094212;28;1035;-59
2023/04/27 10:30:47;;;;;;;;;;;;;;;15.68;36.98;95113.59;5095054;28;1040;-58
2023/04/27 10:33:18;;;;;;;;;;;;;;;15.61;37.15;95118.09;5094967;28;1036;-58
2023/04/27 10:35:52;;;;;;;;;;;;;;;15.90;35.58;95116.34;5094848;28;1076;-58
2023/04/27 10:38:20;;;;;;;;;;;;;;;16.05;37.28;95111.69;5094864;28;1056;-58
2023/04/27 10:40:57;;;;;;;;;;;;;;;16.05;36.83;95127.00;5095013;28;1023;-60
2023/04/27 10:43:27;;;;;;;;;;;;;;;15.83;36.70;95127.03;5094697;28;1071;-59
2023/04/27 10:45:54;;;;;;;;;;;;;;;15.77;36.90;95117.06;5094990;28;1914;-57
2023/04/27 10:48:21;;;;;;;;;;;;;;;15.49;35.92;95120.47;5094791;28;972;-58
2023/04/27 10:50:50;;;;;;;;;;;;;;;15.74;37.13;95117.44;5094915;28;952;-57
2023/04/27 10:53:16;;;;;;;;;;;;;;;15.87;35.63;95119.41;5093235;28;1057;-58
2023/04/27 10:55:42;;;;;;;;;;;;;;;16.07;38.40;95115.00;5094654;28;965;-58
2023/04/27 10:58:09;;;;;;;;;;;;;;;16.07;35.79;95111.47;5094801;28;1020;-58
2023/04/27 11:00:37;;;;;;;;;;;;;;;16.14;35.72;95118.59;5094691;28;1300;-58
2023/04/27 11:03:10;;;;;;;;;;;;;;;15.88;36.29;95111.13;5094680;28;1235;-60
2023/04/27 11:05:36;;;;;;;;;;;;;;;15.79;37.11;95113.13;5093272;28;1906;-58
2023/04/27 11:08:07;;;;;;;;;;;;;;;16.10;35.78;95106.50;5093378;28;1065;-54
2023/04/27 11:10:36;;;;;;;;;;;;;;;16.28;35.96;95102.50;5094533;28;988;-57
2023/04/27 11:13:06;;;;;;;;;;;;;;;16.14;34.08;95113.22;5094206;28;1631;-56
2023/04/27 11:15:41;;;;;;;;;;;;;;;15.99;37.22;95102.50;5093917;28;1071;-57
2023/04/27 11:18:07;;;;;;;;;;;;;;;15.87;37.55;95106.75;5094535;28;996;-57
2023/04/27 11:20:33;;;;;;;;;;;;;;;15.80;36.44;95104.03;5094335;28;1072;-57
2023/04/27 11:22:59;;;;;;;;;;;;;;;16.05;36.16;95103.59;5092799;28;1132;-57
2023/04/27 11:25:28;;;;;;;;;;;;;;;16.11;36.91;95105.50;5093997;28;1913;-57
2023/04/27 11:27:54;;;;;;;;;;;;;;;16.30;35.97;95103.97;5093989;28;1061;-58
2023/04/27 11:30:21;;;;;;;;;;;;;;;16.38;36.15;95095.69;5093893;28;1012;-58
2023/04/27 11:32:48;;;;;;;;;;;;;;;16.42;37.70;95096.13;5093853;28;1524;-57
2023/04/27 11:35:14;;;;;;;;;;;;;;;16.49;37.70;95094.31;5093930;28;962;-57
2023/04/27 11:37:41;;;;;;;;;;;;;;;16.46;36.45;95105.50;5093578;28;1135;-57
2023/04/27 11:40:08;;;;;;;;;;;;;;;16.27;37.24;95109.75;5093764;28;980;-58
2023/04/27 11:42:34;;;;;;;;;;;;;;;16.23;35.16;95097.69;5093561;28;966;-58
2023/04/27 11:45:04;;;;;;;;;;;;;;;16.08;36.01;95096.97;5093774;28;1909;-58
2023/04/27 11:47:32;;;;;;;;;;;;;;;16.44;36.78;95096.78;5093603;28;1302;-58
2023/04/27 11:49:59;;;;;;;;;;;;;;;16.54;36.58;95088.31;5093645;28;1127;-58
2023/04/27 11:52:29;;;;;;;;;;;;;;;16.34;36.86;95097.13;5093668;28;976;-58
2023/04/27 11:54:55;;;;;;;;;;;;;;;16.24;36.44;95106.59;5093891;28;1043;-58
2023/04/27 11:57:25;;;;;;;;;;;;;;;16.23;36.46;95107.66;5093368;28;1087;-58
2023/04/27 11:59:52;;;;;;;;;;;;;;;16.48;37.41;95098.03;5093683;28;965;-58
2023/04/27 12:02:20;;;;;;;;;;;;;;;16.61;36.24;95093.75;5093734;28;1012;-57
2023/04/27 12:04:47;;;;;;;;;;;;;;;16.71;38.36;95089.66;5093591;28;1918;-58
2023/04/27 12:07:13;;;;;;;;;;;;;;;16.94;36.51;95089.38;5093369;28;1027;-57
2023/04/27 12:09:39;;;;;;;;;;;;;;;16.82;37.43;95082.88;5093686;28;1056;-58
2023/04/27 12:12:06;;;;;;;;;;;;;;;16.70;36.96;95088.00;5092429;28;953;-57
2023/04/27 12:14:32;;;;;;;;;;;;;;;16.75;36.47;95096.31;5093497;28;1268;-58
2023/04/27 12:16:58;;;;;;;;;;;;;;;16.68;35.34;95095.47;5093194;28;1076;-58
2023/04/27 12:19:24;;;;;;;;;;;;;;;16.65;36.03;95093.16;5093523;28;986;-58
2023/04/27 12:21:51;;;;;;;;;;;;;;;16.56;36.54;95086.25;5093558;28;977;-58
2023/04/27 12:24:18;;;;;;;;;;;;;;;16.54;38.29;95086.47;5093474;28;949;-58
2023/04/27 12:26:45;;;;;;;;;;;;;;;16.27;36.39;95098.13;5093503;28;1977;-58
2023/04/27 12:29:11;;;;;;;;;;;;;;;16.34;37.70;95082.81;5091946;28;1049;-57
2023/04/27 12:31:37;;;;;;;;;;;;;;;16.42;36.81;95089.91;5092051;28;1111;-58
2023/04/27 12:34:03;;;;;;;;;;;;;;;16.34;35.84;95090.91;5093121;28;1123;-57
2023/04/27 12:36:30;;;;;;;;;;;;;;;16.31;36.15;95089.44;5093005;28;987;-58
2023/04/27 12:38:57;;;;;;;;;;;;;;;16.26;37.20;95096.44;5093171;28;1024;-58
2023/04/27 12:41:24;;;;;;;;;;;;;;;16.38;35.97;95093.00;5091852;28;1040;-58
2023/04/27 12:43:50;;;;;;;;;;;;;;;16.39;36.97;95101.94;5093502;28;1036;-58
2023/04/27 12:46:17;;;;;;;;;;;;;;;16.18;36.92;95101.00;5093066;28;1994;-58
2023/04/27 12:48:43;;;;;;;;;;;;;;;15.97;35.43;95095.63;5093300;28;1012;-58
2023/04/27 12:51:09;;;;;;;;;;;;;;;15.92;36.04;95098.09;5093286;28;1027;-58
2023/04/27 12:53:36;;;;;;;;;;;;;;;15.95;35.91;95086.91;5096757;28;1076;-57
2023/04/27 12:56:03;;;;;;;;;;;;;;;15.75;34.42;95087.59;5096819;28;1061;-57
2023/04/27 12:58:30;;;;;;;;;;;;;;;15.83;35.79;95093.88;5096926;28;930;-58
2023/04/27 13:00:59;;;;;;;;;;;;;;;15.99;35.43;95082.78;5095775;28;1048;-58
2023/04/27 13:03:25;;;;;;;;;;;;;;;15.97;37.67;95082.16;5096685;28;1065;-58
2023/04/27 13:05:51;;;;;;;;;;;;;;;15.92;35.53;95088.13;5096447;28;1909;-58
2023/04/27 13:08:17;;;;;;;;;;;;;;;16.06;35.70;95093.63;5096474;28;1127;-58
2023/04/27 13:10:43;;;;;;;;;;;;;;;15.97;36.17;95079.44;5096532;28;1116;-58
2023/04/27 13:13:09;;;;;;;;;;;;;;;15.67;35.30;95079.63;5096593;28;1252;-58
2023/04/27 13:15:36;;;;;;;;;;;;;;;15.84;35.82;95082.91;5096414;28;1100;-58
2023/04/27 13:18:05;;;;;;;;;;;;;;;15.99;35.66;95075.53;5096678;28;1024;-57
2023/04/27 13:20:31;;;;;;;;;;;;;;;16.19;35.80;95083.75;5096217;28;1040;-58
2023/04/27 13:22:57;;;;;;;;;;;;;;;15.97;34.68;95085.69;5096496;28;1063;-57
2023/04/27 13:25:23;;;;;;;;;;;;;;;15.64;35.25;95088.09;5096026;28;1898;-58
2023/04/27 13:27:50;;;;;;;;;;;;;;;15.19;35.51;95087.44;5096186;28;1033;-57
2023/04/27 13:30:16;;;;;;;;;;;;;;;15.20;35.89;95083.72;5096129;28;972;-58